createdAt,value
2022-12-25T00:00:26.393Z,-10972.84
2022-12-25T00:03:32.887Z,-10973.56
2022-12-25T00:06:39.338Z,-10967.53
2022-12-25T00:09:47.064Z,-10968.78
2022-12-25T00:12:53.684Z,-10958.41
2022-12-25T00:16:00.290Z,-10964.59
2022-12-25T00:19:06.516Z,-10964.59
2022-12-25T00:22:12.919Z,-10964.59
2022-12-25T00:25:20.500Z,-10967.38
2022-12-25T00:28:27.421Z,-10963.19
2022-12-25T00:31:34.829Z,-10969.19
2022-12-25T00:34:41.000Z,-10964.72
2022-12-25T00:37:47.149Z,-10966.25
2022-12-25T00:40:55.364Z,-10963.88
2022-12-25T00:44:01.460Z,-10962.63
2022-12-25T00:47:07.911Z,-10954.50
2022-12-25T00:50:14.229Z,-10961.34
2022-12-25T00:53:20.663Z,-10958.97
2022-12-25T00:56:28.298Z,-10961.22
2022-12-25T00:59:35.194Z,-10963.47
2022-12-25T01:02:41.620Z,-10957.16
2022-12-25T01:05:56.936Z,-10950.56
2022-12-25T01:09:16.917Z,-10944.13
2022-12-25T01:12:24.386Z,-10954.22
2022-12-25T01:15:30.975Z,-10954.06
2022-12-25T01:18:38.111Z,-10954.50
2022-12-25T01:21:44.478Z,-10946.66
2022-12-25T01:24:51.239Z,-10949.31
2022-12-25T01:27:59.007Z,-10951.97
2022-12-25T01:31:06.791Z,-10952.53
2022-12-25T01:34:12.883Z,-10954.22
2022-12-25T01:37:19.358Z,-10953.66
2022-12-25T01:40:26.205Z,-10951.97
2022-12-25T01:43:34.914Z,-10948.59
2022-12-25T01:46:41.446Z,-10955.34
2022-12-25T01:49:51.059Z,-10953.22
2022-12-25T01:52:59.155Z,-10948.59
2022-12-25T01:56:09.275Z,-10952.09
2022-12-25T01:59:20.861Z,-10944.53
2022-12-25T02:02:27.417Z,-10937.53
2022-12-25T02:05:35.622Z,-10943.56
2022-12-25T02:08:42.242Z,-10948.06
2022-12-25T02:12:00.818Z,-10950.84
2022-12-25T02:15:12.477Z,-10947.78
2022-12-25T02:18:25.499Z,-10934.47
2022-12-25T02:21:57.207Z,-10926.75
2022-12-25T02:25:22.307Z,-10927.88
2022-12-25T02:28:36.207Z,-10942.44
2022-12-25T02:31:49.825Z,-10935.16
2022-12-25T02:35:03.473Z,-10931.38
2022-12-25T02:38:17.030Z,-10935.72
2022-12-25T02:41:22.768Z,-10939.91
2022-12-25T02:44:49.636Z,-10943.84
2022-12-25T02:48:13.314Z,-10940.19
2022-12-25T02:51:39.727Z,-10937.41
2022-12-25T02:55:07.922Z,-10926.19
2022-12-25T02:58:36.416Z,-10920.72
2022-12-25T03:02:02.616Z,-10928.44
2022-12-25T03:05:30.927Z,-10933.47
2022-12-25T03:08:41.905Z,-10939.34
2022-12-25T03:11:54.700Z,-10943.84
2022-12-25T03:15:18.414Z,-10945.38
2022-12-25T03:18:29.725Z,-10942.44
2022-12-25T03:21:53.253Z,-10934.59
2022-12-25T03:25:17.391Z,-10931.94
2022-12-25T03:28:23.686Z,-10939.50
2022-12-25T03:31:39.293Z,-10932.22
2022-12-25T03:35:12.019Z,-10927.31
2022-12-25T03:38:46.364Z,-10935.28
2022-12-25T03:42:16.467Z,-10934.03
2022-12-25T03:45:47.576Z,-10941.03
2022-12-25T03:49:19.493Z,-10939.34
2022-12-25T03:52:47.161Z,-10939.91
2022-12-25T03:56:12.505Z,-10937.13
2022-12-25T03:59:38.262Z,-10940.63
2022-12-25T04:03:02.088Z,-10937.25
2022-12-25T04:06:26.032Z,-10934.47
2022-12-25T04:09:50.913Z,-10944.41
2022-12-25T04:13:14.929Z,-10948.06
2022-12-25T04:16:38.557Z,-10947.06
2022-12-25T04:20:02.733Z,-10942.16
2022-12-25T04:23:26.486Z,-10944.41
2022-12-25T04:26:50.743Z,-10946.66
2022-12-25T04:30:13.979Z,-10936.84
2022-12-25T04:33:37.881Z,-10934.19
2022-12-25T04:36:45.041Z,-10938.25
2022-12-25T04:39:51.232Z,-10935.16
2022-12-25T04:42:59.115Z,-10931.09
2022-12-25T04:46:06.735Z,-10928.84
2022-12-25T04:49:13.134Z,-10927.03
2022-12-25T04:52:19.334Z,-10929.56
2022-12-25T04:55:25.657Z,-10925.50
2022-12-25T04:58:34.288Z,-10932.09
2022-12-25T05:01:40.761Z,-10932.38
2022-12-25T05:04:47.930Z,-10932.09
2022-12-25T05:07:54.112Z,-10933.91
2022-12-25T05:11:00.968Z,-10926.91
2022-12-25T05:14:08.333Z,-10935.56
2022-12-25T05:17:15.178Z,-10931.81
2022-12-25T05:20:21.552Z,-10937.41
2022-12-25T05:23:27.882Z,-10933.19
2022-12-25T05:26:34.007Z,-10927.03
2022-12-25T05:29:41.762Z,-10929.84
2022-12-25T05:32:48.943Z,-10921.44
2022-12-25T05:35:55.189Z,-10922.56
2022-12-25T05:39:01.714Z,-10927.88
2022-12-25T05:42:07.950Z,-10938.94
2022-12-25T05:45:15.860Z,-10936.41
2022-12-25T05:48:22.056Z,-10930.13
2022-12-25T05:51:28.233Z,-10921.16
2022-12-25T05:54:35.544Z,-10913.59
2022-12-25T05:57:41.676Z,-10916.53
2022-12-25T06:00:49.639Z,-10935.16
2022-12-25T06:03:56.021Z,-10950.84
2022-12-25T06:07:02.219Z,-10955.19
2022-12-25T06:10:09.779Z,-10935.72
2022-12-25T06:13:16.081Z,-10925.91
2022-12-25T06:16:23.691Z,-10933.47
2022-12-25T06:19:30.090Z,-10936.56
2022-12-25T06:22:36.312Z,-10934.03
2022-12-25T06:25:42.588Z,-10938.53
2022-12-25T06:28:49.209Z,-10942.03
2022-12-25T06:31:57.600Z,-10947.50
2022-12-25T06:35:04.372Z,-10954.22
2022-12-25T06:38:10.605Z,-10960.66
2022-12-25T06:41:18.899Z,-10965.00
2022-12-25T06:44:25.042Z,-10968.78
2022-12-25T06:47:32.386Z,-10974.38
2022-12-25T06:50:44.313Z,-10976.78
2022-12-25T06:53:52.128Z,-10978.03
2022-12-25T06:56:58.373Z,-10983.63
2022-12-25T07:00:05.054Z,-10984.06
2022-12-25T07:03:21.380Z,-10986.31
2022-12-25T07:06:28.506Z,-10992.06
2022-12-25T07:09:35.831Z,-10997.66
2022-12-25T07:12:41.924Z,-10999.91
2022-12-25T07:15:48.454Z,-10999.34
2022-12-25T07:18:56.259Z,-11002.16
2022-12-25T07:22:02.505Z,-11009.28
2022-12-25T07:25:09.591Z,-11017.84
2022-12-25T07:28:16.041Z,-11018.97
2022-12-25T07:31:22.671Z,-11023.47
2022-12-25T07:34:30.567Z,-11016.72
2022-12-25T07:37:36.718Z,-11030.19
2022-12-25T07:40:46.410Z,-11037.50
2022-12-25T07:43:53.057Z,-11041.41
2022-12-25T07:46:59.160Z,-11046.19
2022-12-25T07:50:08.896Z,-11050.53
2022-12-25T07:53:14.984Z,-11063.59
2022-12-25T07:56:21.898Z,-11064.72
2022-12-25T07:59:28.197Z,-11099.81
2022-12-25T08:02:34.556Z,-11076.50
2022-12-25T08:05:42.213Z,-11088.00
2022-12-25T08:08:48.900Z,-11092.22
2022-12-25T08:11:54.990Z,-11101.63
2022-12-25T08:15:01.268Z,-11104.03
2022-12-25T08:18:07.374Z,-11114.97
2022-12-25T08:21:16.041Z,-11108.66
2022-12-25T08:24:22.698Z,-11120.72
2022-12-25T08:27:29.322Z,-11128.75
2022-12-25T08:30:35.643Z,-11117.78
2022-12-25T08:33:41.649Z,-11122.28
2022-12-25T08:36:49.928Z,-11130.00
2022-12-25T08:39:56.408Z,-11132.66
2022-12-25T08:43:03.014Z,-11140.25
2022-12-25T08:46:09.753Z,-11147.97
2022-12-25T08:49:16.488Z,-11148.97
2022-12-25T08:52:24.035Z,-11154.88
2022-12-25T08:55:30.618Z,-11165.13
2022-12-25T08:58:37.252Z,-11172.59
2022-12-25T09:01:43.815Z,-11181.84
2022-12-25T09:04:50.544Z,-11181.00
2022-12-25T09:07:58.138Z,-11188.03
2022-12-25T09:11:04.474Z,-11191.69
2022-12-25T09:14:10.936Z,-11187.91
2022-12-25T09:17:16.747Z,-11195.50
2022-12-25T09:20:22.774Z,-11196.19
2022-12-25T09:23:33.645Z,-11198.44
2022-12-25T09:26:40.194Z,-11201.69
2022-12-25T09:29:46.207Z,-11211.53
2022-12-25T09:32:52.435Z,-11202.94
2022-12-25T09:36:00.451Z,-11201.53
2022-12-25T09:39:08.644Z,-11203.22
2022-12-25T09:42:18.479Z,-11203.22
2022-12-25T09:45:28.351Z,-11209.41
2022-12-25T09:48:36.951Z,-11214.91
2022-12-25T09:51:45.413Z,-11222.50
2022-12-25T09:54:59.182Z,-11223.47
2022-12-25T09:58:12.831Z,-11216.44
2022-12-25T10:01:27.393Z,-11217.28
2022-12-25T10:04:54.870Z,-11219.97
2022-12-25T10:08:08.905Z,-11221.22
2022-12-25T10:11:25.138Z,-11222.91
2022-12-25T10:14:37.805Z,-11219.69
2022-12-25T10:18:02.019Z,-11221.66
2022-12-25T10:21:13.334Z,-11217.56
2022-12-25T10:24:31.983Z,-11220.53
2022-12-25T10:27:42.842Z,-11220.09
2022-12-25T10:30:51.410Z,-11226.44
2022-12-25T10:33:59.536Z,-11227.97
2022-12-25T10:37:05.863Z,-11222.06
2022-12-25T10:40:31.214Z,-11226.00
2022-12-25T10:43:43.518Z,-11227.84
2022-12-25T10:46:51.279Z,-11224.31
2022-12-25T10:49:59.369Z,-11228.13
2022-12-25T10:53:09.531Z,-11229.66
2022-12-25T10:56:18.917Z,-11230.50
2022-12-25T10:59:27.845Z,-11229.09
2022-12-25T11:02:41.075Z,-11231.06
2022-12-25T11:05:51.529Z,-11235.59
2022-12-25T11:08:59.689Z,-11231.34
2022-12-25T11:12:06.902Z,-11234.59
2022-12-25T11:15:35.459Z,-11239.38
2022-12-25T11:18:49.979Z,-11237.00
2022-12-25T11:21:58.312Z,-11230.50
2022-12-25T11:25:13.511Z,-11230.94
2022-12-25T11:28:19.877Z,-11231.50
2022-12-25T11:31:36.635Z,-11235.44
2022-12-25T11:34:45.784Z,-11232.63
2022-12-25T11:37:53.532Z,-11233.75
2022-12-25T11:41:04.007Z,-11233.31
2022-12-25T11:44:26.664Z,-11235.88
2022-12-25T11:47:37.773Z,-11234.31
2022-12-25T11:50:48.067Z,-11236.44
2022-12-25T11:53:57.046Z,-11241.91
2022-12-25T11:57:07.654Z,-11240.06
2022-12-25T12:00:17.127Z,-11238.09
2022-12-25T12:03:28.628Z,-11245.56
2022-12-25T12:06:46.767Z,-11238.94
2022-12-25T12:09:59.672Z,-11237.13
2022-12-25T12:13:30.656Z,-11246.97
2022-12-25T12:16:37.380Z,-11245.44
2022-12-25T12:19:45.063Z,-11242.31
2022-12-25T12:22:51.950Z,-11241.47
2022-12-25T12:25:59.118Z,-11247.13
2022-12-25T12:29:08.438Z,-11249.50
2022-12-25T12:32:30.340Z,-11244.03
2022-12-25T12:35:41.263Z,-11253.16
2022-12-25T12:38:47.712Z,-11246.41
2022-12-25T12:41:54.906Z,-11246.13
2022-12-25T12:45:11.743Z,-11251.34
2022-12-25T12:48:26.348Z,-11246.84
2022-12-25T12:51:37.064Z,-11239.38
2022-12-25T12:54:57.196Z,-11255.13
2022-12-25T12:58:05.294Z,-11258.09
2022-12-25T13:01:21.890Z,-11251.91
2022-12-25T13:04:45.470Z,-11255.13
2022-12-25T13:08:04.135Z,-11246.41
2022-12-25T13:11:17.927Z,-11259.63
2022-12-25T13:14:25.838Z,-11243.88
2022-12-25T13:17:32.117Z,-11257.38
2022-12-25T13:20:46.197Z,-11262.31
2022-12-25T13:24:00.561Z,-11257.25
2022-12-25T13:27:23.123Z,-11258.50
2022-12-25T13:30:29.594Z,-11257.81
2022-12-25T13:33:36.386Z,-11256.81
2022-12-25T13:36:43.050Z,-11249.66
2022-12-25T13:39:53.324Z,-11232.47
2022-12-25T13:43:02.387Z,-11212.38
2022-12-25T13:46:09.049Z,-11205.47
2022-12-25T13:49:17.887Z,-11200.69
2022-12-25T13:52:29.746Z,-11197.31
2022-12-25T13:55:37.945Z,-11194.50
2022-12-25T13:58:45.242Z,-11190.28
2022-12-25T14:01:52.609Z,-11191.41
2022-12-25T14:04:58.937Z,-11182.97
2022-12-25T14:08:13.696Z,-11184.38
2022-12-25T14:11:23.988Z,-11180.59
2022-12-25T14:14:31.016Z,-11178.91
2022-12-25T14:17:37.334Z,-11175.53
2022-12-25T14:20:56.042Z,-11173.16
2022-12-25T14:24:02.596Z,-11173.44
2022-12-25T14:27:20.817Z,-11177.06
2022-12-25T14:30:30.263Z,-11174.53
2022-12-25T14:33:40.042Z,-11172.31
2022-12-25T14:36:46.790Z,-11166.41
2022-12-25T14:39:58.433Z,-11170.34
2022-12-25T14:43:22.296Z,-11167.09
2022-12-25T14:46:31.093Z,-11163.03
2022-12-25T14:49:38.156Z,-11164.44
2022-12-25T14:52:46.270Z,-11160.34
2022-12-25T14:55:55.118Z,-11160.06
2022-12-25T14:59:02.967Z,-11157.25
2022-12-25T15:02:20.375Z,-11152.06
2022-12-25T15:05:33.122Z,-11142.50
2022-12-25T15:08:41.301Z,-11131.41
2022-12-25T15:11:49.422Z,-11119.88
2022-12-25T15:14:57.296Z,-11115.53
2022-12-25T15:18:05.943Z,-11110.19
2022-12-25T15:21:17.367Z,-11107.69
2022-12-25T15:24:23.711Z,-11105.44
2022-12-25T15:27:29.958Z,-11103.47
2022-12-25T15:30:39.450Z,-11106.00
2022-12-25T15:33:45.970Z,-11107.13
2022-12-25T15:36:52.978Z,-11113.44
2022-12-25T15:39:59.585Z,-11121.72
2022-12-25T15:43:11.553Z,-11133.38
2022-12-25T15:46:30.366Z,-11135.75
2022-12-25T15:49:36.940Z,-11144.06
2022-12-25T15:52:43.219Z,-11142.66
2022-12-25T15:55:49.824Z,-11143.34
2022-12-25T15:58:56.368Z,-11145.88
2022-12-25T16:02:04.401Z,-11144.91
2022-12-25T16:05:11.190Z,-11128.31
2022-12-25T16:08:17.256Z,-11109.34
2022-12-25T16:11:23.399Z,-11099.81
2022-12-25T16:14:29.936Z,-11091.94
2022-12-25T16:17:37.890Z,-11087.72
2022-12-25T16:20:44.444Z,-11079.88
2022-12-25T16:23:50.811Z,-11078.47
2022-12-25T16:26:57.004Z,-11085.06
2022-12-25T16:30:04.434Z,-11083.38
2022-12-25T16:33:12.889Z,-11077.63
2022-12-25T16:36:23.549Z,-11073.97
2022-12-25T16:39:33.866Z,-11070.88
2022-12-25T16:42:40.509Z,-11069.06
2022-12-25T16:45:47.233Z,-11063.59
2022-12-25T16:48:56.461Z,-11066.66
2022-12-25T16:52:03.944Z,-11058.81
2022-12-25T16:55:11.066Z,-11055.16
2022-12-25T16:58:17.836Z,-11060.06
2022-12-25T17:01:24.515Z,-11050.41
2022-12-25T17:04:32.507Z,-11045.34
2022-12-25T17:07:39.315Z,-11042.25
2022-12-25T17:10:46.819Z,-11045.50
2022-12-25T17:13:53.045Z,-11040.84
2022-12-25T17:16:59.293Z,-11043.38
2022-12-25T17:20:08.536Z,-11038.88
2022-12-25T17:23:15.085Z,-11037.63
2022-12-25T17:26:21.407Z,-11042.53
2022-12-25T17:29:28.024Z,-11049.56
2022-12-25T17:32:35.674Z,-11040.44
2022-12-25T17:35:43.077Z,-11038.47
2022-12-25T17:38:50.271Z,-11030.75
2022-12-25T17:41:56.803Z,-11027.25
2022-12-25T17:45:02.847Z,-11021.78
2022-12-25T17:48:09.143Z,-11024.03
2022-12-25T17:51:18.392Z,-11018.13
2022-12-25T17:54:24.759Z,-11022.19
2022-12-25T17:57:30.935Z,-11026.28
2022-12-25T18:00:37.669Z,-11019.41
2022-12-25T18:03:44.931Z,-11015.19
2022-12-25T18:06:52.661Z,-11020.09
2022-12-25T18:09:59.175Z,-11023.47
2022-12-25T18:13:05.880Z,-11017.28
2022-12-25T18:16:13.654Z,-11008.19
2022-12-25T18:19:20.098Z,-11015.59
2022-12-25T18:22:28.142Z,-11007.47
2022-12-25T18:25:34.820Z,-11013.22
2022-12-25T18:28:42.822Z,-11019.53
2022-12-25T18:31:49.267Z,-11011.41
2022-12-25T18:34:55.917Z,-11007.75
2022-12-25T18:38:03.774Z,-11002.28
2022-12-25T18:41:11.609Z,-11007.63
2022-12-25T18:44:17.965Z,-11002.56
2022-12-25T18:47:24.435Z,-11004.09
2022-12-25T18:50:31.040Z,-11004.25
2022-12-25T18:53:38.732Z,-10997.94
2022-12-25T18:56:47.401Z,-10995.13
2022-12-25T18:59:56.713Z,-10989.53
2022-12-25T19:03:03.209Z,-10996.53
2022-12-25T19:06:10.029Z,-10990.22
2022-12-25T19:09:17.724Z,-10996.81
2022-12-25T19:12:25.391Z,-10992.06
2022-12-25T19:15:31.489Z,-10987.44
2022-12-25T19:18:37.973Z,-10992.06
2022-12-25T19:21:44.354Z,-10986.16
2022-12-25T19:24:52.213Z,-10989.38
2022-12-25T19:27:58.567Z,-10983.22
2022-12-25T19:31:07.633Z,-10981.13
2022-12-25T19:34:14.314Z,-10977.19
2022-12-25T19:37:20.467Z,-10983.63
2022-12-25T19:40:28.087Z,-10979.72
2022-12-25T19:43:36.697Z,-10974.38
2022-12-25T19:46:43.432Z,-10974.38
2022-12-25T19:49:53.209Z,-10981.25
2022-12-25T19:53:00.014Z,-10966.25
2022-12-25T19:56:07.880Z,-10970.47
2022-12-25T19:59:14.674Z,-10973.56
2022-12-25T20:02:21.152Z,-10975.09
2022-12-25T20:05:27.417Z,-10972.44
2022-12-25T20:08:33.818Z,-10954.22
2022-12-25T20:11:42.064Z,-10965.16
2022-12-25T20:14:49.494Z,-10966.13
2022-12-25T20:17:55.963Z,-10967.81
2022-12-25T20:21:02.909Z,-10966.97
2022-12-25T20:24:11.272Z,-10967.53
2022-12-25T20:27:19.055Z,-10967.66
2022-12-25T20:30:25.445Z,-10969.75
2022-12-25T20:33:31.529Z,-10968.78
2022-12-25T20:36:38.371Z,-10957.56
2022-12-25T20:39:45.259Z,-10964.31
2022-12-25T20:42:53.029Z,-10959.25
2022-12-25T20:45:59.862Z,-10956.03
2022-12-25T20:49:06.815Z,-10957.00
2022-12-25T20:52:13.421Z,-10961.91
2022-12-25T20:55:20.270Z,-10935.56
2022-12-25T20:58:28.228Z,-10929.28
2022-12-25T21:01:34.810Z,-10926.75
2022-12-25T21:04:41.337Z,-10927.59
2022-12-25T21:07:47.959Z,-10944.13
2022-12-25T21:11:00.799Z,-10945.25
2022-12-25T21:14:10.148Z,-10951.41
2022-12-25T21:17:16.309Z,-10956.72
2022-12-25T21:20:22.991Z,-10959.81
2022-12-25T21:23:30.561Z,-10954.91
2022-12-25T21:26:37.069Z,-10956.44
2022-12-25T21:29:44.825Z,-10952.25
2022-12-25T21:33:08.616Z,-10957.00
2022-12-25T21:36:17.571Z,-10940.75
2022-12-25T21:39:24.047Z,-10929.69
2022-12-25T21:42:32.134Z,-10929.28
2022-12-25T21:45:39.573Z,-10922.28
2022-12-25T21:48:46.410Z,-10918.91
2022-12-25T21:52:09.684Z,-10922.69
2022-12-25T21:55:16.296Z,-10917.09
2022-12-25T21:58:22.625Z,-10929.97
2022-12-25T22:01:31.667Z,-10934.31
2022-12-25T22:04:38.034Z,-10923.13
2022-12-25T22:07:43.413Z,-10915.41
2022-12-25T22:10:50.003Z,-10905.06
2022-12-25T22:14:13.858Z,-10907.28
2022-12-25T22:17:41.596Z,-10921.56
2022-12-25T22:20:47.622Z,-10936.84
2022-12-25T22:23:53.695Z,-10931.81
2022-12-25T22:27:00.076Z,-10931.25
2022-12-25T22:30:08.158Z,-10934.31
2022-12-25T22:33:16.080Z,-10935.44
2022-12-25T22:36:23.650Z,-10939.34
2022-12-25T22:39:31.622Z,-10910.38
2022-12-25T22:42:37.862Z,-10895.13
2022-12-25T22:45:44.276Z,-10916.53
2022-12-25T22:48:52.132Z,-10900.44
2022-12-25T22:51:58.973Z,-10911.78
2022-12-25T22:55:06.019Z,-10923.41
2022-12-25T22:58:12.299Z,-10923.41
2022-12-25T23:01:18.493Z,-10923.41
2022-12-25T23:04:26.319Z,-10926.91
2022-12-25T23:07:33.000Z,-10924.78
2022-12-25T23:10:39.422Z,-10924.50
2022-12-25T23:14:03.535Z,-10926.63
2022-12-25T23:17:25.952Z,-10917.66
2022-12-25T23:20:51.843Z,-10909.53
2022-12-25T23:24:15.687Z,-10911.50
2022-12-25T23:27:22.115Z,-10912.47
2022-12-25T23:30:28.580Z,-10926.19
2022-12-25T23:33:34.689Z,-10912.06
2022-12-25T23:36:42.732Z,-10920.03
2022-12-25T23:39:50.285Z,-10921.72
2022-12-25T23:42:56.553Z,-10913.59
2022-12-25T23:46:03.107Z,-10903.78
2022-12-25T23:49:10.394Z,-10899.31
2022-12-25T23:52:18.923Z,-10894.84
2022-12-25T23:55:25.807Z,-10911.91
2022-12-25T23:58:32.250Z,-10904.91
